Time;durP1;ratioP1;P1;durP2;ratioP2;P2;SDS_P1;SDS_P2;PMS_P1;PMS_P2;Temp;Humidity;BMP_temperature;BMP_pressure;BME280_temperature;BME280_humidity;BME280_pressure;Samples;Min_cycle;Max_cycle;Signal;HPM_P1;HPM_P2
2020/12/30 00:00:43;;;;;;;3.55;3.35;;;;;;;1.25;85.79;98854.66;4910158;29;20104;-78
2020/12/30 00:03:36;;;;;;;5.78;2.70;;;;;;;1.24;85.67;98852.22;4907077;29;20040;-78
2020/12/30 00:06:04;;;;;;;2.40;2.30;;;;;;;1.25;85.08;98856.56;4894942;29;20669;-76
2020/12/30 00:08:30;;;;;;;3.58;3.28;;;;;;;1.15;85.86;98855.28;4901098;29;20478;-75
2020/12/30 00:10:58;;;;;;;4.38;3.97;;;;;;;1.24;85.22;98871.06;4899357;29;20036;-74
2020/12/30 00:13:45;;;;;;;6.20;3.88;;;;;;;1.14;85.03;98853.69;4894862;29;20459;-76
2020/12/30 00:16:11;;;;;;;3.80;3.58;;;;;;;1.14;86.75;98858.22;4900231;29;20115;-77
2020/12/30 00:18:37;;;;;;;3.75;3.45;;;;;;;1.18;86.13;98862.91;4891155;29;20032;-75
2020/12/30 00:21:23;;;;;;;4.45;2.80;;;;;;;1.16;84.98;98864.22;4904819;29;20123;-78
2020/12/30 00:23:49;;;;;;;1.90;1.70;;;;;;;1.08;85.24;98865.44;4910063;29;20044;-78
2020/12/30 00:26:22;;;;;;;2.30;2.20;;;;;;;1.04;85.63;98869.66;4904887;29;20478;-76
2020/12/30 00:28:50;;;;;;;4.18;2.70;;;;;;;0.98;85.06;98865.22;4915430;29;20039;-77
2020/12/30 00:31:16;;;;;;;3.33;2.65;;;;;;;0.93;85.60;98865.13;4896779;29;20036;-76
2020/12/30 00:33:41;;;;;;;2.78;2.58;;;;;;;0.84;85.75;98859.31;4888804;29;20031;-76
2020/12/30 00:36:09;;;;;;;2.75;2.42;;;;;;;0.85;85.66;98860.97;4901365;29;20104;-77
2020/12/30 00:39:39;;;;;;;2.10;1.95;;;;;;;0.87;84.89;98866.91;4899138;29;20048;-78
2020/12/30 00:41:54;;;;;;;2.72;1.90;;;;;;;0.76;85.15;98852.47;4874120;29;20487;-75
2020/12/30 00:44:22;;;;;;;4.70;2.08;;;;;;;0.69;85.33;98859.84;4904077;29;20033;-75
2020/12/30 00:46:55;;;;;;;5.60;2.15;;;;;;;0.78;85.26;98858.41;4896120;29;20040;-77
2020/12/30 00:49:40;;;;;;;;;;;;;;;;;;;;;
2020/12/30 00:52:18;;;;;;;3.25;2.95;;;;;;;0.87;86.62;98864.22;4911830;29;20119;-75
2020/12/30 00:54:55;;;;;;;2.63;2.47;;;;;;;0.84;85.87;98852.06;4920282;29;20431;-78
2020/12/30 00:57:39;;;;;;;4.15;2.58;;;;;;;0.91;86.84;98859.19;4905767;29;20382;-76
2020/12/30 01:00:05;;;;;;;5.38;2.35;;;;;;;0.94;86.59;98870.28;4891717;29;20112;-75
2020/12/30 01:02:30;;;;;;;2.88;2.50;;;;;;;0.99;86.65;98877.63;4910357;29;20028;-75
2020/12/30 01:04:56;;;;;;;6.03;2.80;;;;;;;0.99;86.89;98888.41;4915245;29;20044;-75
2020/12/30 01:07:27;;;;;;;2.45;2.25;;;;;;;0.89;86.45;98885.50;4901062;29;20554;-76
2020/12/30 01:09:55;;;;;;;3.72;2.30;;;;;;;0.86;85.48;98892.19;4889628;29;20471;-75
2020/12/30 01:12:20;;;;;;;4.50;2.80;;;;;;;0.90;86.67;98895.22;4897493;29;20466;-74
2020/12/30 01:14:52;;;;;;;2.45;2.25;;;;;;;0.89;86.02;98898.97;4895697;29;20063;-76
2020/12/30 01:17:17;;;;;;;4.30;2.75;;;;;;;0.86;86.42;98890.31;4891030;29;20036;-75
2020/12/30 01:19:42;;;;;;;8.55;2.50;;;;;;;0.87;86.87;98886.56;4905739;29;20108;-76
2020/12/30 01:22:08;;;;;;;2.88;2.28;;;;;;;0.96;87.09;98899.66;4908557;29;20036;-75
2020/12/30 01:24:33;;;;;;;3.85;2.10;;;;;;;0.94;86.54;98896.38;4895246;29;20045;-75
2020/12/30 01:26:59;;;;;;;7.20;2.30;;;;;;;0.93;86.70;98889.38;4906835;29;20132;-75
2020/12/30 01:29:24;;;;;;;5.15;2.10;;;;;;;0.91;86.28;98892.28;4899621;29;20123;-74
2020/12/30 01:31:55;;;;;;;6.15;2.50;;;;;;;0.86;86.33;98894.88;4894920;29;20091;-76
2020/12/30 01:34:23;;;;;;;6.22;2.22;;;;;;;0.85;86.42;98899.44;4892230;29;20028;-75
2020/12/30 01:36:53;;;;;;;1.83;1.40;;;;;;;0.77;85.89;98897.13;4882064;29;20055;-75
2020/12/30 01:39:22;;;;;;;1.88;1.77;;;;;;;0.70;85.86;98899.13;4893778;29;20092;-75
2020/12/30 01:41:48;;;;;;;2.38;1.40;;;;;;;0.62;85.50;98900.34;4915778;29;20044;-76
2020/12/30 01:44:13;;;;;;;1.75;1.65;;;;;;;0.59;85.37;98900.00;4911304;29;20391;-76
2020/12/30 01:46:46;;;;;;;1.95;1.20;;;;;;;0.58;85.60;98904.56;4912877;29;20042;-78
2020/12/30 01:49:23;;;;;;;2.35;1.25;;;;;;;0.59;85.57;98911.56;4899986;29;20033;-76
2020/12/30 01:51:52;;;;;;;5.55;1.40;;;;;;;0.61;86.03;98920.22;4903704;29;20033;-74
2020/12/30 01:54:37;;;;;;;1.50;1.40;;;;;;;0.54;86.66;98900.72;4903116;29;20374;-76
2020/12/30 01:57:03;;;;;;;1.45;1.35;;;;;;;0.60;85.88;98915.06;4888400;29;20527;-74
2020/12/30 01:59:37;;;;;;;1.17;1.15;;;;;;;0.68;86.47;98926.28;4901385;29;20088;-81
2020/12/30 02:02:07;;;;;;;3.47;1.42;;;;;;;0.73;86.33;98933.66;4900035;29;20042;-80
2020/12/30 02:04:42;;;;;;;6.07;1.55;;;;;;;0.77;86.80;98934.81;4907128;29;20081;-82
2020/12/30 02:07:09;;;;;;;2.55;1.70;;;;;;;0.74;86.58;98929.09;4918354;29;20557;-80
2020/12/30 02:09:37;;;;;;;5.10;1.55;;;;;;;0.76;86.46;98937.72;4899891;29;20052;-81
2020/12/30 02:12:10;;;;;;;2.63;1.00;;;;;;;0.82;86.77;98937.63;4885954;29;20068;-79
2020/12/30 02:14:35;;;;;;;1.40;1.30;;;;;;;0.89;87.05;98940.16;4921298;29;20096;-78
2020/12/30 02:17:03;;;;;;;6.13;2.00;;;;;;;0.96;87.02;98953.47;4898882;29;20048;-80
2020/12/30 02:19:33;;;;;;;8.48;1.92;;;;;;;0.98;87.68;98962.13;4891664;29;20028;-79
2020/12/30 02:22:09;;;;;;;2.17;2.03;;;;;;;0.99;85.96;98963.78;4907462;29;20079;-78
2020/12/30 02:24:36;;;;;;;3.15;2.25;;;;;;;0.98;87.17;98967.50;4925184;28;20044;-81
2020/12/30 02:27:25;;;;;;;6.47;1.15;;;;;;;1.06;86.41;98975.22;4918692;29;20118;-81
2020/12/30 02:29:53;;;;;;;2.33;1.10;;;;;;;1.06;86.63;98967.13;4889108;29;20060;-80
2020/12/30 02:32:19;;;;;;;9.20;1.38;;;;;;;1.11;86.86;98967.25;4870623;29;20128;-81
2020/12/30 02:34:53;;;;;;;1.30;1.30;;;;;;;1.13;87.19;98965.13;4914144;29;20115;-80
2020/12/30 02:37:21;;;;;;;2.15;1.02;;;;;;;1.15;86.90;98964.88;4895776;29;20111;-82
2020/12/30 02:39:59;;;;;;;1.17;1.08;;;;;;;1.15;86.65;98965.69;4895916;29;20027;-80
2020/12/30 02:42:24;;;;;;;1.30;1.20;;;;;;;1.17;86.46;98962.78;4908392;29;20036;-81
2020/12/30 02:44:58;;;;;;;1.10;1.00;;;;;;;1.22;87.43;98960.19;4877365;29;20487;-78
2020/12/30 02:47:24;;;;;;;3.75;0.95;;;;;;;1.20;86.55;98952.34;4898455;29;20032;-80
2020/12/30 02:49:49;;;;;;;1.05;1.05;;;;;;;1.20;86.37;98955.03;4902836;29;20043;-80
2020/12/30 02:52:15;;;;;;;1.75;1.15;;;;;;;1.25;86.66;98965.06;4883326;29;20032;-83
2020/12/30 02:54:40;;;;;;;2.38;1.30;;;;;;;1.24;86.47;98965.31;4897807;29;20055;-83
2020/12/30 02:57:08;;;;;;;0.90;0.90;;;;;;;1.26;87.27;98963.22;4883162;29;20025;-81
2020/12/30 02:59:36;;;;;;;3.00;1.10;;;;;;;1.40;87.53;98967.22;4904576;29;20059;-81
2020/12/30 03:02:01;;;;;;;1.83;1.42;;;;;;;1.41;87.18;98954.59;4916722;29;20884;-82
2020/12/30 03:04:30;;;;;;;2.72;1.25;;;;;;;1.47;86.87;98967.91;4868582;29;20036;-83
2020/12/30 03:07:05;;;;;;;1.08;0.90;;;;;;;1.50;87.23;98963.91;4911853;29;20036;-81
2020/12/30 03:09:33;;;;;;;3.83;0.90;;;;;;;1.48;86.78;98966.84;4902373;29;20034;-79
2020/12/30 03:12:03;;;;;;;1.77;1.17;;;;;;;1.53;86.54;98980.44;4906917;29;20035;-81
2020/12/30 03:14:28;;;;;;;2.67;0.90;;;;;;;1.39;86.23;98963.72;4886999;29;20115;-82
2020/12/30 03:16:56;;;;;;;1.90;0.93;;;;;;;1.40;86.10;98975.31;4911379;29;20128;-81
2020/12/30 03:19:25;;;;;;;3.88;1.10;;;;;;;1.30;86.77;98975.13;4901415;29;20060;-83
2020/12/30 03:21:55;;;;;;;0.60;0.60;;;;;;;1.32;85.97;98979.22;4906599;29;20036;-83
2020/12/30 03:24:34;;;;;;;2.05;0.95;;;;;;;1.24;85.95;98965.31;4902221;29;20017;-82
2020/12/30 03:27:06;;;;;;;2.05;1.02;;;;;;;1.27;85.00;98981.00;4913699;29;20036;-86
2020/12/30 03:29:42;;;;;;;1.10;1.00;;;;;;;1.25;85.91;98983.13;4890574;29;20047;-83
2020/12/30 03:32:21;;;;;;;;;;;;;;;;;;;;;
2020/12/30 03:35:05;;;;;;;0.75;0.68;;;;;;;1.08;86.50;98956.97;4912689;29;20052;-82
2020/12/30 03:37:34;;;;;;;1.40;1.30;;;;;;;1.22;86.42;98973.63;4912657;29;20383;-84
2020/12/30 03:40:28;;;;;;;7.00;0.98;;;;;;;1.26;86.60;98974.00;4910889;29;20040;-85
2020/12/30 03:42:54;;;;;;;1.30;1.20;;;;;;;1.16;86.61;98964.66;4904148;29;20028;-84
2020/12/30 03:45:27;;;;;;;4.32;1.05;;;;;;;1.24;86.12;98970.72;4921210;29;20391;-85
2020/12/30 03:48:11;;;;;;;3.28;1.10;;;;;;;1.22;86.17;98963.69;4909966;29;20534;-83
2020/12/30 03:50:39;;;;;;;0.47;0.47;;;;;;;1.27;86.92;98975.59;4893730;29;20032;-79
2020/12/30 03:53:08;;;;;;;1.77;0.90;;;;;;;1.30;85.76;98969.75;4919902;29;20086;-78
2020/12/30 03:55:35;;;;;;;1.13;0.50;;;;;;;1.33;86.12;98980.88;4894455;29;20029;-80
2020/12/30 03:58:01;;;;;;;6.22;1.15;;;;;;;1.31;86.15;98980.28;4905074;29;20049;-81
2020/12/30 04:00:26;;;;;;;0.68;0.60;;;;;;;1.23;86.52;98969.91;4880337;29;20450;-79
2020/12/30 04:02:54;;;;;;;1.58;1.02;;;;;;;1.31;85.28;98985.66;4907623;29;20057;-79
2020/12/30 04:05:21;;;;;;;2.05;1.20;;;;;;;1.28;85.96;98988.03;4875095;29;20099;-78
2020/12/30 04:07:47;;;;;;;4.32;0.90;;;;;;;1.22;86.65;98982.53;4908467;29;20028;-79
2020/12/30 04:10:12;;;;;;;2.75;1.30;;;;;;;1.25;86.88;98988.50;4915057;29;20086;-80
2020/12/30 04:12:41;;;;;;;1.23;1.23;;;;;;;1.25;86.27;98985.81;4895891;29;20024;-78
2020/12/30 04:15:09;;;;;;;4.40;1.73;;;;;;;1.26;86.26;98998.22;4910216;29;20163;-79
2020/12/30 04:17:34;;;;;;;3.55;2.10;;;;;;;1.22;86.56;98993.31;4897666;29;20043;-76
2020/12/30 04:20:03;;;;;;;3.10;2.08;;;;;;;1.22;86.56;98996.00;4909413;29;20422;-78
2020/12/30 04:22:28;;;;;;;2.00;1.77;;;;;;;1.24;86.07;98984.16;4915371;29;20028;-80
2020/12/30 04:24:55;;;;;;;2.20;2.00;;;;;;;1.30;87.07;98999.38;4917972;29;20384;-79
2020/12/30 04:27:23;;;;;;;8.05;2.03;;;;;;;1.29;87.00;98995.06;4896965;29;20059;-78
2020/12/30 04:29:49;;;;;;;2.25;2.05;;;;;;;1.35;87.41;99002.97;4884694;29;20024;-78
2020/12/30 04:32:17;;;;;;;1.92;1.83;;;;;;;1.32;87.20;98989.19;4904610;29;20025;-78
2020/12/30 04:34:45;;;;;;;1.45;1.35;;;;;;;1.44;87.02;99003.41;4910334;29;20024;-78
2020/12/30 04:37:15;;;;;;;1.88;1.77;;;;;;;1.50;86.43;99004.31;4910574;29;20036;-77
2020/12/30 04:39:49;;;;;;;3.92;2.58;;;;;;;1.56;86.45;99006.03;4898763;29;20436;-77
2020/12/30 04:42:25;;;;;;;1.98;1.88;;;;;;;1.59;86.74;99002.06;4920879;29;20043;-80
2020/12/30 04:45:03;;;;;;;3.40;2.28;;;;;;;1.60;86.99;99001.81;4908513;29;20119;-80
2020/12/30 04:47:29;;;;;;;4.45;2.78;;;;;;;1.65;86.44;98995.69;4906413;29;20043;-78
2020/12/30 04:49:57;;;;;;;3.28;2.50;;;;;;;1.71;87.10;99010.91;4912356;29;20056;-79
2020/12/30 04:52:26;;;;;;;3.08;2.88;;;;;;;1.67;86.83;98998.97;4920646;29;20021;-80
2020/12/30 04:54:57;;;;;;;3.40;3.08;;;;;;;1.74;87.00;99002.34;4916253;29;20036;-81
2020/12/30 04:58:05;;;;;;;6.53;3.40;;;;;;;1.78;87.03;99000.78;4925449;29;20482;-81
2020/12/30 05:00:34;;;;;;;11.45;3.03;;;;;;;1.78;87.07;99008.88;4888368;29;20176;-76
2020/12/30 05:03:06;;;;;;;4.40;2.45;;;;;;;1.77;86.81;99009.94;4897363;29;20091;-83
2020/12/30 05:05:37;;;;;;;4.03;2.75;;;;;;;1.71;86.58;99008.22;4888911;29;20036;-79
2020/12/30 05:08:09;;;;;;;4.13;2.85;;;;;;;1.63;86.38;99005.91;4910845;29;20043;-80
2020/12/30 05:10:37;;;;;;;6.10;2.90;;;;;;;1.59;87.36;99016.34;4904773;29;20463;-79
2020/12/30 05:13:03;;;;;;;3.08;2.90;;;;;;;1.55;86.63;99004.44;4911896;29;20115;-80
2020/12/30 05:15:31;;;;;;;3.15;2.95;;;;;;;1.60;86.55;99011.78;4898096;29;20716;-80
2020/12/30 05:18:02;;;;;;;7.05;3.08;;;;;;;1.65;87.54;99014.56;4898426;29;20123;-79
2020/12/30 05:20:35;;;;;;;3.30;2.83;;;;;;;1.73;87.59;99011.47;4927848;29;20063;-78
2020/12/30 05:23:15;;;;;;;2.10;1.95;;;;;;;1.83;88.14;99014.34;4884923;29;20083;-79
2020/12/30 05:25:42;;;;;;;2.47;2.38;;;;;;;1.88;88.01;99019.84;4917615;29;20068;-79
2020/12/30 05:28:12;;;;;;;7.35;2.40;;;;;;;1.90;86.44;99023.09;4891033;29;20031;-77
2020/12/30 05:30:42;;;;;;;2.88;2.55;;;;;;;1.90;86.24;99016.91;4897434;29;20043;-79
2020/12/30 05:33:16;;;;;;;2.85;2.65;;;;;;;1.87;87.01;99017.38;4894328;29;20036;-80
2020/12/30 05:35:42;;;;;;;5.32;2.20;;;;;;;1.82;86.96;99015.41;4891521;29;20036;-81
2020/12/30 05:38:10;;;;;;;3.20;1.95;;;;;;;1.81;87.23;99016.50;4892002;29;20131;-81
2020/12/30 05:40:35;;;;;;;3.20;1.95;;;;;;;1.80;86.86;99022.94;4870136;29;20091;-79
2020/12/30 05:43:11;;;;;;;2.88;1.70;;;;;;;1.84;87.69;99020.56;4882945;29;20024;-80
2020/12/30 05:45:43;;;;;;;3.13;2.08;;;;;;;1.85;86.65;99017.63;4916627;29;20028;-82
2020/12/30 05:48:19;;;;;;;7.53;2.22;;;;;;;1.88;86.43;99022.53;4897265;29;20028;-80
2020/12/30 05:51:00;;;;;;;6.75;1.50;;;;;;;1.86;86.60;99027.34;4916119;29;20032;-84
2020/12/30 05:53:25;;;;;;;5.35;2.63;;;;;;;1.81;86.34;99024.56;4920684;29;20044;-84
2020/12/30 05:56:06;;;;;;;4.30;1.75;;;;;;;1.82;86.37;99023.50;4900044;29;20020;-81
2020/12/30 05:58:46;;;;;;;3.60;1.05;;;;;;;1.83;87.47;99017.06;4908925;29;20040;-84
2020/12/30 06:01:33;;;;;;;2.33;2.15;;;;;;;1.89;86.74;99021.47;4889807;29;20119;-79
2020/12/30 06:04:19;;;;;;;5.22;1.67;;;;;;;1.94;86.91;99018.03;4897418;29;20468;-78
2020/12/30 06:06:46;;;;;;;3.30;1.48;;;;;;;2.03;87.53;99021.16;4899199;29;20035;-78
2020/12/30 06:09:22;;;;;;;4.55;1.55;;;;;;;2.05;86.66;99030.63;4910354;29;20406;-81
2020/12/30 06:11:54;;;;;;;2.42;1.83;;;;;;;2.13;87.27;99032.09;4897274;29;20099;-81
2020/12/30 06:14:21;;;;;;;5.70;2.10;;;;;;;2.19;86.93;99036.53;4908452;29;20036;-80
2020/12/30 06:16:49;;;;;;;6.78;1.33;;;;;;;2.23;86.69;99037.69;4884371;29;20024;-81
2020/12/30 06:19:15;;;;;;;3.45;1.80;;;;;;;2.26;86.76;99045.28;4895182;29;20492;-79
2020/12/30 06:22:04;;;;;;;6.75;1.48;;;;;;;2.31;86.93;99044.53;4902947;29;20043;-79
2020/12/30 06:24:38;;;;;;;3.97;1.60;;;;;;;2.35;87.48;99050.25;4908512;29;20060;-80
2020/12/30 06:27:06;;;;;;;4.88;1.85;;;;;;;2.36;86.09;99054.59;4897001;29;20059;-79
2020/12/30 06:29:32;;;;;;;9.23;2.50;;;;;;;2.36;87.06;99052.72;4906669;29;20028;-80
2020/12/30 06:32:00;;;;;;;4.55;1.52;;;;;;;2.39;86.71;99054.09;4914733;29;20031;-80
2020/12/30 06:34:35;;;;;;;3.70;1.85;;;;;;;2.38;86.68;99052.47;4905111;29;20024;-80
2020/12/30 06:37:09;;;;;;;3.35;1.55;;;;;;;2.35;86.87;99053.78;4903352;29;20036;-79
2020/12/30 06:39:34;;;;;;;5.28;2.65;;;;;;;2.29;86.26;99051.25;4912818;29;20050;-79
2020/12/30 06:42:03;;;;;;;4.53;1.48;;;;;;;2.26;86.80;99056.06;4882490;29;20036;-79
2020/12/30 06:44:40;;;;;;;5.22;1.67;;;;;;;2.23;86.62;99051.19;4909818;29;20083;-77
2020/12/30 06:47:10;;;;;;;7.82;1.45;;;;;;;2.22;85.65;99049.53;4911656;29;20024;-78
2020/12/30 06:49:36;;;;;;;3.88;1.45;;;;;;;2.19;86.55;99050.03;4904066;29;20064;-80
2020/12/30 06:52:23;;;;;;;3.17;1.42;;;;;;;2.18;86.00;99051.06;4919660;29;20036;-79
2020/12/30 06:54:48;;;;;;;;;;;;;;;2.16;86.43;99055.91;4889584;29;20045;-79
2020/12/30 06:57:32;;;;;;;;;;;;;;;2.13;85.87;99055.56;4911123;29;19998;-79
2020/12/30 07:00:17;;;;;;;4.78;1.40;;;;;;;2.08;85.93;99056.31;4910856;29;20286;-78
2020/12/30 07:03:18;;;;;;;7.88;1.45;;;;;;;2.08;86.17;99057.09;4884836;29;20033;-77
2020/12/30 07:05:48;;;;;;;2.92;0.93;;;;;;;2.04;86.67;99066.75;4879226;29;20400;-78
2020/12/30 07:08:39;;;;;;;3.88;0.82;;;;;;;2.02;86.63;99068.06;4873970;29;20044;-79
2020/12/30 07:11:24;;;;;;;0.70;0.70;;;;;;;1.94;86.22;99065.75;4895543;29;20059;-78
2020/12/30 07:13:50;;;;;;;9.07;1.63;;;;;;;1.92;86.62;99069.50;4904402;29;20065;-78
2020/12/30 07:16:21;;;;;;;6.63;0.90;;;;;;;1.90;85.84;99068.13;4897327;29;20045;-78
2020/12/30 07:18:51;;;;;;;4.70;0.77;;;;;;;1.88;86.96;99068.38;4910611;29;20439;-80
2020/12/30 07:21:17;;;;;;;3.40;0.98;;;;;;;1.89;85.78;99075.38;4892701;29;20544;-79
2020/12/30 07:23:45;;;;;;;4.35;1.70;;;;;;;1.91;86.42;99085.91;4886857;29;20506;-79
2020/12/30 07:26:19;;;;;;;3.78;1.98;;;;;;;1.92;86.48;99091.06;4898038;29;20021;-78
2020/12/30 07:28:45;;;;;;;4.75;1.20;;;;;;;1.92;86.22;99091.06;4904190;29;20126;-78
2020/12/30 07:31:12;;;;;;;3.63;1.55;;;;;;;1.91;86.12;99089.47;4894528;29;20037;-77
2020/12/30 07:33:41;;;;;;;1.45;1.35;;;;;;;1.91;86.46;99086.75;4897376;29;20333;-78
2020/12/30 07:36:10;;;;;;;4.72;2.15;;;;;;;1.95;86.57;99088.97;4894090;29;20032;-78
2020/12/30 07:38:39;;;;;;;3.08;1.77;;;;;;;1.91;86.67;99086.75;4887076;29;20039;-80
2020/12/30 07:41:15;;;;;;;16.45;2.17;;;;;;;1.90;85.94;99090.50;4913544;29;20033;-78
2020/12/30 07:43:48;;;;;;;7.03;2.38;;;;;;;1.86;86.72;99089.34;4918805;29;20036;-82
2020/12/30 07:46:21;;;;;;;2.95;2.30;;;;;;;1.75;86.35;99079.44;4893861;29;20483;-75
2020/12/30 07:48:47;;;;;;;7.53;1.85;;;;;;;1.75;86.68;99090.22;4906417;29;20069;-76
2020/12/30 07:51:20;;;;;;;5.38;2.30;;;;;;;1.71;85.63;99091.78;4877767;29;20033;-78
2020/12/30 07:53:52;;;;;;;2.03;1.88;;;;;;;1.59;86.08;99081.00;4893351;29;20085;-78
2020/12/30 07:56:22;;;;;;;9.82;2.25;;;;;;;1.59;85.90;99088.28;4903860;29;20088;-77
2020/12/30 07:58:48;;;;;;;9.48;2.25;;;;;;;1.54;86.62;99084.44;4894307;29;20048;-81
2020/12/30 08:01:16;;;;;;;8.32;1.70;;;;;;;1.48;86.03;99096.16;4904579;29;20034;-83
2020/12/30 08:03:44;;;;;;;8.10;1.73;;;;;;;1.37;86.60;99078.16;4915811;29;20069;-77
2020/12/30 08:06:37;;;;;;;7.45;2.13;;;;;;;1.33;86.17;99077.84;4918902;29;20080;-86
2020/12/30 08:09:11;;;;;;;3.55;1.95;;;;;;;1.39;86.95;99095.72;4918782;29;20044;-83
2020/12/30 08:11:39;;;;;;;11.52;2.47;;;;;;;1.40;87.18;99099.22;4914625;29;20025;-80
2020/12/30 08:14:08;;;;;;;11.50;2.85;;;;;;;1.44;86.83;99105.78;4891211;29;20076;-76
2020/12/30 08:16:34;;;;;;;6.30;2.00;;;;;;;1.47;86.43;99117.97;4896913;29;20484;-76
2020/12/30 08:19:02;;;;;;;11.23;2.38;;;;;;;1.37;86.49;99099.72;4887953;29;20103;-77
2020/12/30 08:21:28;;;;;;;4.65;2.00;;;;;;;1.40;86.96;99107.31;4877217;29;20391;-77
2020/12/30 08:24:17;;;;;;;7.32;2.15;;;;;;;1.46;86.76;99117.16;4890753;29;20041;-77
2020/12/30 08:26:45;;;;;;;7.68;3.42;;;;;;;1.47;87.01;99121.47;4910461;29;20384;-77
2020/12/30 08:29:16;;;;;;;6.22;2.70;;;;;;;1.46;86.31;99119.00;4898239;29;20037;-77
2020/12/30 08:31:45;;;;;;;3.22;1.90;;;;;;;1.49;86.26;99124.75;4880904;29;20052;-78
2020/12/30 08:34:14;;;;;;;4.43;1.80;;;;;;;1.50;86.67;99121.00;4897559;29;20021;-76
2020/12/30 08:36:45;;;;;;;11.85;2.30;;;;;;;1.60;86.41;99141.94;4903583;29;20036;-78
2020/12/30 08:39:17;;;;;;;10.95;1.70;;;;;;;1.53;86.68;99127.78;4896464;29;20039;-78
2020/12/30 08:41:51;;;;;;;7.10;2.13;;;;;;;1.63;85.93;99146.03;4893451;29;20047;-78
2020/12/30 08:44:44;;;;;;;4.45;1.83;;;;;;;1.66;87.14;99159.03;4905523;29;20036;-77
2020/12/30 08:47:19;;;;;;;4.95;1.65;;;;;;;1.61;86.60;99148.13;4888877;29;20124;-77
2020/12/30 08:49:49;;;;;;;2.97;1.27;;;;;;;1.66;86.77;99146.38;4899433;29;20024;-78
2020/12/30 08:52:20;;;;;;;11.32;1.77;;;;;;;1.74;86.17;99155.97;4875717;29;20036;-78
2020/12/30 08:54:45;;;;;;;7.25;1.75;;;;;;;1.77;86.83;99158.19;4892872;29;20427;-77
2020/12/30 08:57:18;;;;;;;5.78;1.13;;;;;;;1.82;85.55;99152.88;4890045;29;20036;-78
2020/12/30 08:59:43;;;;;;;10.70;1.90;;;;;;;1.79;85.70;99142.59;4895622;29;20119;-78
2020/12/30 09:02:12;;;;;;;14.73;2.08;;;;;;;1.92;85.62;99155.78;4873094;29;20479;-77
2020/12/30 09:04:51;;;;;;;15.23;1.95;;;;;;;1.98;85.84;99156.69;4895486;29;20024;-78
2020/12/30 09:07:27;;;;;;;1.05;0.95;;;;;;;2.09;86.02;99161.22;4906387;29;20479;-77
2020/12/30 09:10:03;;;;;;;;;;;;;;;2.23;86.71;99156.38;4893811;29;20032;-77
2020/12/30 09:12:33;;;;;;;9.57;1.92;;;;;;;2.33;85.76;99168.41;4909768;29;19915;-78
2020/12/30 09:15:17;;;;;;;5.43;1.83;;;;;;;2.35;85.83;99152.78;4916566;29;20050;-79
2020/12/30 09:18:01;;;;;;;7.45;2.28;;;;;;;2.49;85.25;99167.59;4913565;29;20275;-81
2020/12/30 09:20:35;;;;;;;10.05;2.05;;;;;;;2.52;85.46;99163.59;4919042;29;20020;-79
2020/12/30 09:23:04;;;;;;;11.35;2.63;;;;;;;2.57;85.43;99167.22;4894893;29;20036;-81
2020/12/30 09:25:40;;;;;;;4.45;1.95;;;;;;;2.66;84.86;99174.88;4880636;29;20055;-84
2020/12/30 09:28:22;;;;;;;7.28;2.72;;;;;;;2.77;85.33;99174.00;4918921;29;20116;-83
2020/12/30 09:30:49;;;;;;;3.90;2.83;;;;;;;2.80;85.08;99160.00;4921778;29;20043;-83
2020/12/30 09:33:22;;;;;;;5.90;2.10;;;;;;;2.93;84.36;99167.75;4925058;29;20028;-84
2020/12/30 09:35:51;;;;;;;8.85;2.75;;;;;;;3.13;84.72;99166.47;4909590;29;20032;-76
2020/12/30 09:38:24;;;;;;;6.13;2.25;;;;;;;3.37;85.12;99185.16;4894448;29;20570;-82
2020/12/30 09:41:14;;;;;;;10.40;2.42;;;;;;;3.55;84.79;99187.59;4891250;29;20511;-78
2020/12/30 09:43:45;;;;;;;12.88;3.17;;;;;;;3.69;84.18;99171.78;4904785;29;20036;-83
2020/12/30 09:46:18;;;;;;;5.90;2.42;;;;;;;3.72;83.22;99175.88;4915518;29;20029;-76
2020/12/30 09:48:47;;;;;;;12.55;4.28;;;;;;;3.84;82.85;99195.50;4888246;29;20084;-80
2020/12/30 09:51:17;;;;;;;18.70;3.88;;;;;;;3.78;82.62;99181.13;4889407;29;20028;-78
2020/12/30 09:54:00;;;;;;;7.28;3.15;;;;;;;3.76;82.74;99171.63;4895281;29;20115;-83
2020/12/30 09:56:25;;;;;;;7.75;2.40;;;;;;;3.78;82.49;99177.56;4926952;29;20051;-76
2020/12/30 09:58:51;;;;;;;9.15;2.22;;;;;;;3.88;82.06;99188.53;4874737;29;20049;-76
2020/12/30 10:01:28;;;;;;;6.18;2.30;;;;;;;3.95;82.32;99181.03;4906925;29;20065;-78
2020/12/30 10:03:54;;;;;;;10.75;2.55;;;;;;;4.10;83.21;99187.69;4907364;29;20037;-78
2020/12/30 10:06:19;;;;;;;15.55;3.50;;;;;;;4.34;82.90;99189.03;4913974;29;20029;-78
2020/12/30 10:08:45;;;;;;;3.40;1.90;;;;;;;4.68;82.31;99180.69;4905464;29;20103;-78
2020/12/30 10:11:10;;;;;;;6.28;2.55;;;;;;;4.87;82.23;99178.41;4898785;29;20047;-78
2020/12/30 10:13:35;;;;;;;9.15;2.45;;;;;;;5.08;80.52;99183.97;4884694;29;20040;-79
2020/12/30 10:16:04;;;;;;;11.57;2.30;;;;;;;5.03;80.20;99167.69;4879337;29;20035;-77
2020/12/30 10:18:30;;;;;;;6.47;2.35;;;;;;;4.93;78.84;99178.44;4897438;29;20083;-78
2020/12/30 10:20:57;;;;;;;3.33;2.15;;;;;;;4.78;78.79;99181.88;4901816;29;20032;-79
2020/12/30 10:23:28;;;;;;;11.55;2.50;;;;;;;4.69;78.68;99190.44;4905710;29;20033;-80
2020/12/30 10:25:53;;;;;;;15.35;2.38;;;;;;;4.51;78.98;99186.22;4900316;29;20032;-78
2020/12/30 10:28:22;;;;;;;10.48;2.80;;;;;;;4.40;79.18;99194.50;4886757;29;20032;-78
2020/12/30 10:30:52;;;;;;;9.98;2.53;;;;;;;4.33;78.90;99200.13;4915881;29;20079;-79
2020/12/30 10:33:21;;;;;;;17.30;2.25;;;;;;;4.22;80.09;99191.09;4911936;29;20028;-79
2020/12/30 10:35:46;;;;;;;8.63;2.05;;;;;;;4.31;79.86;99199.56;4913898;29;20387;-79
2020/12/30 10:38:14;;;;;;;5.28;1.88;;;;;;;4.31;80.47;99184.13;4891426;29;20025;-79
2020/12/30 10:40:40;;;;;;;9.15;2.10;;;;;;;4.47;80.54;99187.00;4886340;29;20032;-77
2020/12/30 10:43:08;;;;;;;4.20;2.15;;;;;;;4.63;79.66;99188.78;4887645;29;20483;-76
2020/12/30 10:45:33;;;;;;;7.38;2.50;;;;;;;4.76;79.36;99192.13;4906490;29;20038;-77
2020/12/30 10:47:59;;;;;;;5.13;1.80;;;;;;;4.97;78.91;99180.38;4894678;29;20120;-78
2020/12/30 10:50:34;;;;;;;6.28;1.65;;;;;;;5.48;78.72;99189.94;4882992;29;20047;-78
2020/12/30 10:52:59;;;;;;;8.02;1.63;;;;;;;5.88;77.52;99189.31;4886367;29;20043;-78
2020/12/30 10:55:37;;;;;;;4.03;1.88;;;;;;;6.23;76.04;99179.69;4907401;29;20031;-85
2020/12/30 10:58:02;;;;;;;7.97;2.30;;;;;;;6.68;75.19;99179.22;4891293;29;20111;-86
2020/12/30 11:00:28;;;;;;;8.10;2.22;;;;;;;7.31;74.44;99187.06;4918628;29;20072;-84
2020/12/30 11:02:54;;;;;;;12.40;2.00;;;;;;;8.18;73.69;99183.25;4898964;29;20040;-82
2020/12/30 11:05:29;;;;;;;5.32;1.42;;;;;;;9.37;72.01;99189.44;4906687;29;20052;-79
2020/12/30 11:07:55;;;;;;;17.65;2.13;;;;;;;10.52;68.15;99178.81;4916778;29;20063;-79
2020/12/30 11:10:20;;;;;;;2.00;1.50;;;;;;;11.02;64.31;99195.50;4895244;29;20060;-78
2020/12/30 11:12:46;;;;;;;2.33;1.50;;;;;;;11.22;61.88;99188.88;4915525;29;20042;-76
2020/12/30 11:15:14;;;;;;;5.32;2.15;;;;;;;10.91;61.07;99200.34;4913601;29;20583;-78
2020/12/30 11:17:42;;;;;;;6.85;1.90;;;;;;;10.83;61.04;99193.63;4905950;29;20036;-77
2020/12/30 11:20:10;;;;;;;4.38;1.40;;;;;;;11.19;61.25;99189.47;4904405;29;20024;-77
2020/12/30 11:22:36;;;;;;;6.38;2.13;;;;;;;11.63;60.96;99190.88;4911289;29;20028;-78
2020/12/30 11:25:03;;;;;;;1.77;1.02;;;;;;;12.11;59.44;99202.56;4906338;29;20369;-77
2020/12/30 11:27:29;;;;;;;3.60;1.75;;;;;;;12.61;57.58;99188.84;4873335;29;20547;-77
2020/12/30 11:29:54;;;;;;;6.97;1.42;;;;;;;13.05;55.61;99190.00;4897166;29;20184;-77
2020/12/30 11:32:20;;;;;;;6.43;1.50;;;;;;;13.41;54.86;99191.84;4885899;29;20036;-78
2020/12/30 11:34:49;;;;;;;4.78;2.08;;;;;;;12.69;53.92;99190.84;4914173;29;20036;-77
2020/12/30 11:37:14;;;;;;;5.18;1.52;;;;;;;11.77;55.96;99190.06;4881105;29;20475;-77
2020/12/30 11:39:40;;;;;;;9.48;1.55;;;;;;;10.90;58.58;99192.44;4905844;29;20051;-78
2020/12/30 11:42:07;;;;;;;5.20;1.70;;;;;;;10.14;60.04;99171.38;4913528;29;20095;-77
2020/12/30 11:44:33;;;;;;;4.40;1.80;;;;;;;9.61;61.83;99177.75;4885938;29;20608;-77
2020/12/30 11:47:00;;;;;;;10.43;1.88;;;;;;;9.19;63.98;99174.63;4912911;29;20032;-79
2020/12/30 11:49:27;;;;;;;4.75;1.58;;;;;;;8.82;64.21;99170.59;4891650;29;20059;-77
2020/12/30 11:52:00;;;;;;;5.20;1.58;;;;;;;8.73;65.38;99177.72;4912361;29;20087;-78
2020/12/30 11:54:25;;;;;;;4.22;0.80;;;;;;;8.74;67.43;99163.00;4901443;29;20043;-80
2020/12/30 11:56:53;;;;;;;6.63;1.17;;;;;;;8.96;67.17;99159.03;4927181;29;20028;-77
2020/12/30 11:59:19;;;;;;;11.10;1.63;;;;;;;9.19;68.07;99177.34;4921939;29;20045;-77
2020/12/30 12:01:44;;;;;;;2.92;1.33;;;;;;;9.37;68.60;99175.00;4931970;29;20067;-79